sensor_id;sensor_type;location;lat;lon;timestamp;P1;durP1;ratioP1;P2;durP2;ratioP2
37284;SDS011;23172;53.550;9.964;2023-07-29T00:03:27;22.58;;;20.33;;
37284;SDS011;23172;53.550;9.964;2023-07-29T00:08:31;20.00;;;17.90;;
37284;SDS011;23172;53.550;9.964;2023-07-29T00:13:33;22.47;;;20.27;;
37284;SDS011;23172;53.550;9.964;2023-07-29T00:18:35;17.17;;;15.57;;
37284;SDS011;23172;53.550;9.964;2023-07-29T00:23:40;33.17;;;29.80;;
37284;SDS011;23172;53.550;9.964;2023-07-29T00:28:42;17.65;;;16.05;;
37284;SDS011;23172;53.550;9.964;2023-07-29T00:33:44;13.98;;;12.68;;
37284;SDS011;23172;53.550;9.964;2023-07-29T00:38:47;13.77;;;12.48;;
37284;SDS011;23172;53.550;9.964;2023-07-29T00:43:50;15.80;;;14.43;;
37284;SDS011;23172;53.550;9.964;2023-07-29T00:48:53;23.70;;;21.63;;
37284;SDS011;23172;53.550;9.964;2023-07-29T00:53:56;20.37;;;18.37;;
37284;SDS011;23172;53.550;9.964;2023-07-29T00:58:58;14.07;;;12.85;;
37284;SDS011;23172;53.550;9.964;2023-07-29T01:04:02;12.87;;;11.77;;
37284;SDS011;23172;53.550;9.964;2023-07-29T01:09:06;8.30;;;7.70;;
37284;SDS011;23172;53.550;9.964;2023-07-29T01:14:11;11.93;;;10.90;;
37284;SDS011;23172;53.550;9.964;2023-07-29T01:19:19;9.77;;;8.98;;
37284;SDS011;23172;53.550;9.964;2023-07-29T01:24:25;12.10;;;11.10;;
37284;SDS011;23172;53.550;9.964;2023-07-29T01:29:29;16.20;;;14.80;;
37284;SDS011;23172;53.550;9.964;2023-07-29T01:34:32;10.23;;;9.33;;
37284;SDS011;23172;53.550;9.964;2023-07-29T01:39:42;12.95;;;11.77;;
37284;SDS011;23172;53.550;9.964;2023-07-29T01:44:47;11.73;;;10.73;;
37284;SDS011;23172;53.550;9.964;2023-07-29T01:49:49;12.88;;;11.43;;
37284;SDS011;23172;53.550;9.964;2023-07-29T01:54:52;17.03;;;15.33;;
37284;SDS011;23172;53.550;9.964;2023-07-29T01:59:54;16.30;;;15.00;;
37284;SDS011;23172;53.550;9.964;2023-07-29T02:04:56;14.77;;;13.57;;
37284;SDS011;23172;53.550;9.964;2023-07-29T02:10:00;11.60;;;10.60;;
37284;SDS011;23172;53.550;9.964;2023-07-29T02:15:02;9.73;;;9.00;;
37284;SDS011;23172;53.550;9.964;2023-07-29T02:20:04;10.38;;;9.57;;
37284;SDS011;23172;53.550;9.964;2023-07-29T02:25:09;11.23;;;10.32;;
37284;SDS011;23172;53.550;9.964;2023-07-29T02:30:11;9.75;;;8.95;;
37284;SDS011;23172;53.550;9.964;2023-07-29T02:35:13;17.67;;;16.17;;
37284;SDS011;23172;53.550;9.964;2023-07-29T02:40:16;12.63;;;11.63;;
37284;SDS011;23172;53.550;9.964;2023-07-29T02:45:18;10.98;;;10.10;;
37284;SDS011;23172;53.550;9.964;2023-07-29T02:50:20;10.35;;;9.55;;
37284;SDS011;23172;53.550;9.964;2023-07-29T02:55:23;13.38;;;12.27;;
37284;SDS011;23172;53.550;9.964;2023-07-29T03:00:25;13.50;;;12.40;;
37284;SDS011;23172;53.550;9.964;2023-07-29T03:05:27;13.77;;;12.50;;
37284;SDS011;23172;53.550;9.964;2023-07-29T03:10:31;11.10;;;10.10;;
37284;SDS011;23172;53.550;9.964;2023-07-29T03:15:32;12.47;;;11.43;;
37284;SDS011;23172;53.550;9.964;2023-07-29T03:20:35;11.10;;;10.27;;
37284;SDS011;23172;53.550;9.964;2023-07-29T03:25:38;10.23;;;9.43;;
37284;SDS011;23172;53.550;9.964;2023-07-29T03:30:40;10.40;;;9.55;;
37284;SDS011;23172;53.550;9.964;2023-07-29T03:35:42;10.70;;;9.80;;
37284;SDS011;23172;53.550;9.964;2023-07-29T03:40:46;11.23;;;10.33;;
37284;SDS011;23172;53.550;9.964;2023-07-29T03:45:48;10.63;;;9.82;;
37284;SDS011;23172;53.550;9.964;2023-07-29T03:50:50;13.30;;;12.13;;
37284;SDS011;23172;53.550;9.964;2023-07-29T03:55:53;12.17;;;11.07;;
37284;SDS011;23172;53.550;9.964;2023-07-29T04:00:55;15.00;;;13.57;;
37284;SDS011;23172;53.550;9.964;2023-07-29T04:05:56;13.53;;;12.33;;
37284;SDS011;23172;53.550;9.964;2023-07-29T04:11:00;15.70;;;14.33;;
37284;SDS011;23172;53.550;9.964;2023-07-29T04:16:02;18.23;;;16.63;;
37284;SDS011;23172;53.550;9.964;2023-07-29T04:21:04;20.50;;;18.50;;
37284;SDS011;23172;53.550;9.964;2023-07-29T04:26:07;24.90;;;22.57;;
37284;SDS011;23172;53.550;9.964;2023-07-29T04:31:09;27.45;;;24.95;;
37284;SDS011;23172;53.550;9.964;2023-07-29T04:36:13;26.40;;;24.10;;
37284;SDS011;23172;53.550;9.964;2023-07-29T04:41:16;27.73;;;25.02;;
37284;SDS011;23172;53.550;9.964;2023-07-29T04:46:18;25.85;;;23.60;;
37284;SDS011;23172;53.550;9.964;2023-07-29T04:51:21;25.55;;;23.35;;
37284;SDS011;23172;53.550;9.964;2023-07-29T04:56:24;24.23;;;22.03;;
37284;SDS011;23172;53.550;9.964;2023-07-29T05:01:26;23.83;;;21.77;;
37284;SDS011;23172;53.550;9.964;2023-07-29T05:06:28;26.20;;;23.80;;
37284;SDS011;23172;53.550;9.964;2023-07-29T05:11:31;24.60;;;22.40;;
37284;SDS011;23172;53.550;9.964;2023-07-29T05:16:33;25.30;;;23.10;;
37284;SDS011;23172;53.550;9.964;2023-07-29T05:21:35;22.63;;;20.57;;
37284;SDS011;23172;53.550;9.964;2023-07-29T05:26:38;22.93;;;20.93;;
37284;SDS011;23172;53.550;9.964;2023-07-29T05:31:40;21.93;;;20.03;;
37284;SDS011;23172;53.550;9.964;2023-07-29T05:36:41;21.33;;;19.37;;
37284;SDS011;23172;53.550;9.964;2023-07-29T05:41:45;22.65;;;20.63;;
37284;SDS011;23172;53.550;9.964;2023-07-29T05:46:47;22.85;;;20.90;;
37284;SDS011;23172;53.550;9.964;2023-07-29T05:51:49;21.87;;;20.03;;
37284;SDS011;23172;53.550;9.964;2023-07-29T05:56:54;22.58;;;20.67;;
37284;SDS011;23172;53.550;9.964;2023-07-29T06:01:56;21.40;;;19.60;;
37284;SDS011;23172;53.550;9.964;2023-07-29T06:06:58;23.10;;;21.10;;
37284;SDS011;23172;53.550;9.964;2023-07-29T06:12:01;23.93;;;21.73;;
37284;SDS011;23172;53.550;9.964;2023-07-29T06:17:03;24.40;;;22.20;;
37284;SDS011;23172;53.550;9.964;2023-07-29T06:22:07;21.95;;;20.05;;
37284;SDS011;23172;53.550;9.964;2023-07-29T06:27:10;21.88;;;20.08;;
37284;SDS011;23172;53.550;9.964;2023-07-29T06:32:12;20.98;;;19.17;;
37284;SDS011;23172;53.550;9.964;2023-07-29T06:37:13;20.65;;;18.85;;
37284;SDS011;23172;53.550;9.964;2023-07-29T06:42:17;20.00;;;18.30;;
37284;SDS011;23172;53.550;9.964;2023-07-29T06:47:18;20.03;;;18.30;;
37284;SDS011;23172;53.550;9.964;2023-07-29T06:52:20;20.17;;;18.27;;
37284;SDS011;23172;53.550;9.964;2023-07-29T06:57:23;21.70;;;19.77;;
37284;SDS011;23172;53.550;9.964;2023-07-29T07:02:25;22.23;;;20.27;;
37284;SDS011;23172;53.550;9.964;2023-07-29T07:07:27;21.30;;;19.50;;
37284;SDS011;23172;53.550;9.964;2023-07-29T07:12:30;20.20;;;18.40;;
37284;SDS011;23172;53.550;9.964;2023-07-29T07:17:32;19.30;;;17.60;;
37284;SDS011;23172;53.550;9.964;2023-07-29T07:22:34;20.42;;;18.65;;
37284;SDS011;23172;53.550;9.964;2023-07-29T07:27:37;20.33;;;18.58;;
37284;SDS011;23172;53.550;9.964;2023-07-29T07:32:39;22.10;;;20.15;;
37284;SDS011;23172;53.550;9.964;2023-07-29T07:37:41;21.05;;;19.17;;
37284;SDS011;23172;53.550;9.964;2023-07-29T07:42:44;21.23;;;19.30;;
37284;SDS011;23172;53.550;9.964;2023-07-29T07:47:45;17.43;;;15.87;;
37284;SDS011;23172;53.550;9.964;2023-07-29T07:52:48;16.83;;;15.40;;
37284;SDS011;23172;53.550;9.964;2023-07-29T07:57:51;17.25;;;15.45;;
37284;SDS011;23172;53.550;9.964;2023-07-29T08:02:53;16.13;;;14.73;;
37284;SDS011;23172;53.550;9.964;2023-07-29T08:07:56;15.90;;;14.50;;
37284;SDS011;23172;53.550;9.964;2023-07-29T08:12:59;15.93;;;14.40;;
37284;SDS011;23172;53.550;9.964;2023-07-29T08:18:01;16.80;;;15.30;;
37284;SDS011;23172;53.550;9.964;2023-07-29T08:23:03;16.10;;;14.70;;
37284;SDS011;23172;53.550;9.964;2023-07-29T08:28:06;16.58;;;15.07;;
37284;SDS011;23172;53.550;9.964;2023-07-29T08:33:08;15.35;;;14.15;;
37284;SDS011;23172;53.550;9.964;2023-07-29T08:38:10;16.73;;;15.43;;
37284;SDS011;23172;53.550;9.964;2023-07-29T08:43:14;15.60;;;14.30;;
37284;SDS011;23172;53.550;9.964;2023-07-29T08:48:19;15.80;;;14.50;;
37284;SDS011;23172;53.550;9.964;2023-07-29T08:53:29;17.00;;;15.53;;
37284;SDS011;23172;53.550;9.964;2023-07-29T08:58:33;17.02;;;15.63;;
37284;SDS011;23172;53.550;9.964;2023-07-29T09:03:36;17.40;;;15.90;;
37284;SDS011;23172;53.550;9.964;2023-07-29T09:08:38;16.60;;;15.13;;
37284;SDS011;23172;53.550;9.964;2023-07-29T09:13:42;15.40;;;14.20;;
37284;SDS011;23172;53.550;9.964;2023-07-29T09:18:44;15.73;;;14.43;;
37284;SDS011;23172;53.550;9.964;2023-07-29T09:23:49;16.50;;;15.20;;
37284;SDS011;23172;53.550;9.964;2023-07-29T09:28:53;18.23;;;16.63;;
37284;SDS011;23172;53.550;9.964;2023-07-29T09:33:57;15.73;;;14.50;;
37284;SDS011;23172;53.550;9.964;2023-07-29T09:38:59;17.98;;;16.65;;
37284;SDS011;23172;53.550;9.964;2023-07-29T09:44:03;1999.90;;;999.90;;
37284;SDS011;23172;53.550;9.964;2023-07-29T09:49:06;1999.90;;;999.90;;
37284;SDS011;23172;53.550;9.964;2023-07-29T09:54:08;1999.90;;;999.90;;
37284;SDS011;23172;53.550;9.964;2023-07-29T09:59:14;1999.90;;;999.90;;
37284;SDS011;23172;53.550;9.964;2023-07-29T10:04:20;1999.90;;;999.90;;
37284;SDS011;23172;53.550;9.964;2023-07-29T10:09:23;1999.90;;;999.90;;
37284;SDS011;23172;53.550;9.964;2023-07-29T10:14:27;1999.90;;;999.90;;
37284;SDS011;23172;53.550;9.964;2023-07-29T10:19:30;1999.90;;;999.90;;
37284;SDS011;23172;53.550;9.964;2023-07-29T10:24:32;1999.90;;;999.90;;
37284;SDS011;23172;53.550;9.964;2023-07-29T10:29:38;1999.90;;;999.90;;
37284;SDS011;23172;53.550;9.964;2023-07-29T10:34:42;1999.90;;;999.90;;
37284;SDS011;23172;53.550;9.964;2023-07-29T10:39:51;1999.90;;;999.90;;
37284;SDS011;23172;53.550;9.964;2023-07-29T10:44:55;1999.90;;;999.90;;
37284;SDS011;23172;53.550;9.964;2023-07-29T10:49:58;1999.90;;;999.90;;
37284;SDS011;23172;53.550;9.964;2023-07-29T10:55:00;1999.90;;;999.90;;
37284;SDS011;23172;53.550;9.964;2023-07-29T11:00:05;1999.90;;;999.90;;
37284;SDS011;23172;53.550;9.964;2023-07-29T11:05:15;1912.10;;;494.83;;
37284;SDS011;23172;53.550;9.964;2023-07-29T11:10:17;1999.90;;;744.67;;
37284;SDS011;23172;53.550;9.964;2023-07-29T11:15:24;1881.63;;;942.25;;
37284;SDS011;23172;53.550;9.964;2023-07-29T11:20:28;1619.07;;;873.60;;
37284;SDS011;23172;53.550;9.964;2023-07-29T11:25:31;662.70;;;598.88;;
37284;SDS011;23172;53.550;9.964;2023-07-29T11:30:39;758.15;;;474.77;;
37284;SDS011;23172;53.550;9.964;2023-07-29T11:35:41;1999.90;;;999.90;;
37284;SDS011;23172;53.550;9.964;2023-07-29T11:40:53;1999.90;;;999.90;;
37284;SDS011;23172;53.550;9.964;2023-07-29T11:45:56;1999.90;;;999.90;;
37284;SDS011;23172;53.550;9.964;2023-07-29T11:51:03;1999.90;;;999.90;;
37284;SDS011;23172;53.550;9.964;2023-07-29T11:56:05;1999.90;;;999.90;;
37284;SDS011;23172;53.550;9.964;2023-07-29T12:01:09;1999.90;;;999.90;;
37284;SDS011;23172;53.550;9.964;2023-07-29T12:06:11;1999.90;;;999.90;;
37284;SDS011;23172;53.550;9.964;2023-07-29T12:11:14;1999.90;;;999.90;;
37284;SDS011;23172;53.550;9.964;2023-07-29T12:16:17;1999.90;;;999.90;;
37284;SDS011;23172;53.550;9.964;2023-07-29T12:21:19;1999.90;;;999.90;;
37284;SDS011;23172;53.550;9.964;2023-07-29T12:26:22;1999.90;;;999.90;;
37284;SDS011;23172;53.550;9.964;2023-07-29T12:31:37;1999.90;;;999.90;;
37284;SDS011;23172;53.550;9.964;2023-07-29T12:36:42;1999.90;;;999.90;;
37284;SDS011;23172;53.550;9.964;2023-07-29T12:41:45;1999.90;;;999.90;;
37284;SDS011;23172;53.550;9.964;2023-07-29T12:46:48;1999.90;;;999.90;;
37284;SDS011;23172;53.550;9.964;2023-07-29T12:51:51;1999.90;;;999.90;;
37284;SDS011;23172;53.550;9.964;2023-07-29T12:56:53;1999.90;;;999.90;;
37284;SDS011;23172;53.550;9.964;2023-07-29T13:01:56;1999.90;;;999.90;;
37284;SDS011;23172;53.550;9.964;2023-07-29T13:06:58;1999.90;;;999.90;;
37284;SDS011;23172;53.550;9.964;2023-07-29T13:12:01;1999.90;;;999.90;;
37284;SDS011;23172;53.550;9.964;2023-07-29T13:17:05;1999.90;;;999.90;;
37284;SDS011;23172;53.550;9.964;2023-07-29T13:22:07;1999.90;;;999.90;;
37284;SDS011;23172;53.550;9.964;2023-07-29T13:27:09;1999.90;;;999.90;;
37284;SDS011;23172;53.550;9.964;2023-07-29T13:32:13;1999.90;;;999.90;;
37284;SDS011;23172;53.550;9.964;2023-07-29T13:37:15;1999.90;;;999.90;;
37284;SDS011;23172;53.550;9.964;2023-07-29T13:42:17;1999.90;;;999.90;;
37284;SDS011;23172;53.550;9.964;2023-07-29T13:47:20;1999.90;;;999.90;;
37284;SDS011;23172;53.550;9.964;2023-07-29T13:52:22;1999.90;;;999.90;;
37284;SDS011;23172;53.550;9.964;2023-07-29T13:57:24;1999.90;;;999.90;;
37284;SDS011;23172;53.550;9.964;2023-07-29T14:02:28;1999.90;;;999.90;;
37284;SDS011;23172;53.550;9.964;2023-07-29T14:07:31;1999.90;;;999.90;;
37284;SDS011;23172;53.550;9.964;2023-07-29T14:12:33;1999.90;;;999.90;;
37284;SDS011;23172;53.550;9.964;2023-07-29T14:17:37;1999.90;;;999.90;;
37284;SDS011;23172;53.550;9.964;2023-07-29T14:22:39;1999.90;;;999.90;;
37284;SDS011;23172;53.550;9.964;2023-07-29T14:27:41;1999.90;;;999.90;;
37284;SDS011;23172;53.550;9.964;2023-07-29T14:32:45;1999.90;;;999.90;;
37284;SDS011;23172;53.550;9.964;2023-07-29T14:37:47;1999.90;;;999.90;;
37284;SDS011;23172;53.550;9.964;2023-07-29T14:42:49;1999.90;;;999.90;;
37284;SDS011;23172;53.550;9.964;2023-07-29T14:47:53;1999.90;;;999.90;;
37284;SDS011;23172;53.550;9.964;2023-07-29T14:52:55;1999.90;;;999.90;;
37284;SDS011;23172;53.550;9.964;2023-07-29T14:57:57;1999.90;;;999.90;;
37284;SDS011;23172;53.550;9.964;2023-07-29T15:03:00;1999.90;;;999.90;;
37284;SDS011;23172;53.550;9.964;2023-07-29T15:08:03;1999.90;;;999.90;;
37284;SDS011;23172;53.550;9.964;2023-07-29T15:13:05;1999.90;;;999.90;;
37284;SDS011;23172;53.550;9.964;2023-07-29T15:18:09;1999.90;;;999.90;;
37284;SDS011;23172;53.550;9.964;2023-07-29T15:23:11;1999.90;;;999.90;;
37284;SDS011;23172;53.550;9.964;2023-07-29T15:28:13;1999.90;;;999.90;;
37284;SDS011;23172;53.550;9.964;2023-07-29T15:33:17;1999.90;;;999.90;;
37284;SDS011;23172;53.550;9.964;2023-07-29T15:38:19;1999.90;;;999.90;;
37284;SDS011;23172;53.550;9.964;2023-07-29T15:43:21;1999.90;;;999.90;;
37284;SDS011;23172;53.550;9.964;2023-07-29T15:48:25;1999.90;;;999.90;;
37284;SDS011;23172;53.550;9.964;2023-07-29T15:53:27;1999.90;;;999.90;;
37284;SDS011;23172;53.550;9.964;2023-07-29T15:58:29;1999.90;;;999.90;;
37284;SDS011;23172;53.550;9.964;2023-07-29T16:03:33;1999.90;;;999.90;;
37284;SDS011;23172;53.550;9.964;2023-07-29T16:08:35;1999.90;;;999.90;;
37284;SDS011;23172;53.550;9.964;2023-07-29T16:13:37;1999.90;;;999.90;;
37284;SDS011;23172;53.550;9.964;2023-07-29T16:18:40;1682.25;;;784.30;;
37284;SDS011;23172;53.550;9.964;2023-07-29T16:23:42;1999.90;;;777.88;;
37284;SDS011;23172;53.550;9.964;2023-07-29T16:28:45;1313.82;;;887.75;;
37284;SDS011;23172;53.550;9.964;2023-07-29T16:33:49;64.57;;;53.70;;
37284;SDS011;23172;53.550;9.964;2023-07-29T16:38:51;62.35;;;36.10;;
37284;SDS011;23172;53.550;9.964;2023-07-29T16:43:52;61.70;;;32.72;;
37284;SDS011;23172;53.550;9.964;2023-07-29T16:48:56;66.88;;;23.85;;
37284;SDS011;23172;53.550;9.964;2023-07-29T16:53:58;45.83;;;25.13;;
37284;SDS011;23172;53.550;9.964;2023-07-29T16:59:00;51.08;;;22.80;;
37284;SDS011;23172;53.550;9.964;2023-07-29T17:04:03;39.70;;;22.10;;
37284;SDS011;23172;53.550;9.964;2023-07-29T17:09:05;62.80;;;31.38;;
37284;SDS011;23172;53.550;9.964;2023-07-29T17:14:07;46.75;;;26.73;;
37284;SDS011;23172;53.550;9.964;2023-07-29T17:19:10;59.00;;;20.85;;
37284;SDS011;23172;53.550;9.964;2023-07-29T17:24:12;52.47;;;27.23;;
37284;SDS011;23172;53.550;9.964;2023-07-29T17:29:14;84.40;;;45.72;;
37284;SDS011;23172;53.550;9.964;2023-07-29T17:34:17;115.97;;;63.35;;
37284;SDS011;23172;53.550;9.964;2023-07-29T17:39:21;121.90;;;69.90;;
37284;SDS011;23172;53.550;9.964;2023-07-29T17:44:23;96.28;;;78.90;;
37284;SDS011;23172;53.550;9.964;2023-07-29T17:49:26;61.20;;;48.97;;
37284;SDS011;23172;53.550;9.964;2023-07-29T17:54:28;53.40;;;42.83;;
37284;SDS011;23172;53.550;9.964;2023-07-29T17:59:31;39.45;;;32.30;;
37284;SDS011;23172;53.550;9.964;2023-07-29T18:04:34;61.72;;;36.22;;
37284;SDS011;23172;53.550;9.964;2023-07-29T18:14:38;16.63;;;15.03;;
